createdAt,value
2019-04-04T00:01:00.999Z,24.50
2019-04-04T00:03:33.066Z,24.50
2019-04-04T00:06:05.115Z,24.60
2019-04-04T00:08:37.942Z,24.60
2019-04-04T00:11:09.942Z,24.70
2019-04-04T00:13:42.618Z,24.70
2019-04-04T00:16:15.951Z,24.80
2019-04-04T00:18:49.537Z,24.80
2019-04-04T00:21:21.672Z,24.90
2019-04-04T00:23:53.765Z,25.00
2019-04-04T00:26:26.365Z,25.00
2019-04-04T00:29:01.272Z,25.10
2019-04-04T00:31:35.515Z,25.10
2019-04-04T00:34:08.300Z,25.20
2019-04-04T00:36:41.290Z,25.20
2019-04-04T00:39:13.487Z,25.30
2019-04-04T00:41:45.916Z,25.30
2019-04-04T00:44:18.944Z,25.30
2019-04-04T00:46:51.069Z,25.40
2019-04-04T00:49:23.220Z,25.50
2019-04-04T00:51:55.768Z,25.50
2019-04-04T00:54:27.826Z,25.60
2019-04-04T00:56:59.965Z,25.70
2019-04-04T00:59:32.372Z,25.70
2019-04-04T01:02:04.489Z,25.80
2019-04-04T01:04:36.860Z,25.90
2019-04-04T01:07:08.918Z,26.00
2019-04-04T01:09:41.051Z,26.10
2019-04-04T01:12:13.086Z,26.10
2019-04-04T01:14:45.274Z,26.20
2019-04-04T01:17:18.478Z,26.20
2019-04-04T01:19:50.721Z,26.30
2019-04-04T01:22:23.103Z,26.40
2019-04-04T01:24:56.470Z,26.50
2019-04-04T01:27:28.608Z,26.60
2019-04-04T01:30:00.746Z,26.60
2019-04-04T01:32:32.893Z,26.70
2019-04-04T01:35:06.601Z,26.70
2019-04-04T01:37:39.798Z,26.80
2019-04-04T01:40:32.906Z,26.80
2019-04-04T01:43:04.624Z,26.90
2019-04-04T01:45:36.817Z,27.00
2019-04-04T01:48:09.374Z,27.00
2019-04-04T01:50:41.826Z,27.10
2019-04-04T01:53:14.060Z,27.10
2019-04-04T01:55:45.964Z,27.20
2019-04-04T01:58:17.875Z,27.20
2019-04-04T02:00:50.110Z,27.30
2019-04-04T02:03:23.326Z,27.30
2019-04-04T02:05:57.853Z,27.40
2019-04-04T02:08:31.304Z,27.50
2019-04-04T02:11:05.236Z,27.60
2019-04-04T02:13:55.822Z,27.60
2019-04-04T02:16:28.373Z,27.70
2019-04-04T02:19:00.313Z,27.70
2019-04-04T02:21:32.963Z,27.80
2019-04-04T02:24:05.440Z,27.80
2019-04-04T02:26:37.783Z,27.90
2019-04-04T02:29:11.718Z,27.90
2019-04-04T02:31:45.270Z,27.90
2019-04-04T02:34:17.532Z,27.90
2019-04-04T02:36:50.210Z,27.90
2019-04-04T02:39:24.846Z,28.00
2019-04-04T02:41:57.004Z,28.00
2019-04-04T02:44:49.397Z,28.10
2019-04-04T02:47:21.730Z,28.10
2019-04-04T02:49:53.755Z,28.20
2019-04-04T02:52:26.534Z,28.20
2019-04-04T02:54:58.959Z,28.30
2019-04-04T02:57:31.001Z,28.30
2019-04-04T03:00:03.277Z,28.30
2019-04-04T03:02:36.936Z,28.30
2019-04-04T03:05:10.170Z,28.40
2019-04-04T03:07:42.183Z,28.40
2019-04-04T03:10:33.774Z,28.40
2019-04-04T03:13:18.730Z,28.50
2019-04-04T03:16:11.110Z,28.50
2019-04-04T03:18:45.465Z,28.60
2019-04-04T03:21:21.948Z,28.60
2019-04-04T03:23:52.489Z,28.70
2019-04-04T03:26:24.981Z,28.80
2019-04-04T03:28:57.436Z,28.80
2019-04-04T03:31:37.307Z,28.90
2019-04-04T03:34:19.190Z,29.00
2019-04-04T03:37:12.467Z,29.20
2019-04-04T03:39:44.856Z,29.30
2019-04-04T03:42:17.351Z,29.50
2019-04-04T03:44:52.831Z,29.60
2019-04-04T03:47:23.265Z,29.70
2019-04-04T03:49:57.736Z,29.80
2019-04-04T03:52:29.414Z,29.90
2019-04-04T03:55:04.630Z,29.90
2019-04-04T03:57:37.226Z,30.00
2019-04-04T04:00:11.848Z,30.10
2019-04-04T04:02:44.270Z,30.10
2019-04-04T04:05:19.694Z,30.20
2019-04-04T04:07:58.449Z,30.30
2019-04-04T04:10:33.509Z,30.40
2019-04-04T04:13:04.548Z,30.50
2019-04-04T04:15:36.532Z,30.60
2019-04-04T04:18:08.993Z,30.70
2019-04-04T04:20:41.338Z,30.70
2019-04-04T04:23:13.490Z,30.90
2019-04-04T04:25:47.324Z,30.90
2019-04-04T04:28:20.753Z,30.80
2019-04-04T04:30:53.901Z,30.90
2019-04-04T04:33:28.969Z,30.90
2019-04-04T04:35:59.722Z,30.90
2019-04-04T04:38:33.372Z,31.00
2019-04-04T04:41:07.516Z,31.00
2019-04-04T04:43:39.561Z,31.00
2019-04-04T04:46:12.142Z,31.10
2019-04-04T04:48:44.849Z,31.20
2019-04-04T04:51:17.400Z,31.30
2019-04-04T04:53:50.585Z,31.40
2019-04-04T04:56:42.799Z,31.50
2019-04-04T04:59:15.930Z,31.70
2019-04-04T05:01:50.238Z,31.80
2019-04-04T05:04:21.883Z,31.90
2019-04-04T05:06:54.127Z,32.00
2019-04-04T05:09:26.295Z,32.10
2019-04-04T05:11:59.639Z,32.20
2019-04-04T05:14:31.672Z,32.20
2019-04-04T05:17:03.737Z,32.20
2019-04-04T05:19:36.059Z,32.20
2019-04-04T05:22:09.266Z,32.20
2019-04-04T05:24:43.120Z,32.20
2019-04-04T05:27:37.245Z,32.20
2019-04-04T05:30:10.838Z,32.30
2019-04-04T05:32:42.698Z,32.40
2019-04-04T05:35:15.371Z,32.50
2019-04-04T05:37:50.615Z,32.60
2019-04-04T05:40:23.550Z,32.80
2019-04-04T05:42:58.124Z,33.00
2019-04-04T05:45:30.186Z,33.20
2019-04-04T05:48:02.468Z,33.40
2019-04-04T05:50:34.995Z,33.50
2019-04-04T05:53:06.915Z,33.50
2019-04-04T05:55:39.809Z,33.60
2019-04-04T05:58:12.922Z,33.60
2019-04-04T06:00:46.360Z,33.70
2019-04-04T06:03:37.453Z,33.80
2019-04-04T06:06:10.683Z,33.80
2019-04-04T06:08:43.423Z,33.90
2019-04-04T06:11:15.916Z,33.90
2019-04-04T06:13:47.855Z,34.00
2019-04-04T06:16:19.930Z,34.10
2019-04-04T06:18:53.173Z,34.30
2019-04-04T06:21:25.220Z,34.30
2019-04-04T06:23:57.434Z,34.40
2019-04-04T06:26:29.884Z,34.20
2019-04-04T06:29:05.464Z,34.10
2019-04-04T06:31:36.196Z,34.10
2019-04-04T06:34:10.417Z,34.10
2019-04-04T06:37:01.217Z,34.30
2019-04-04T06:39:33.373Z,34.40
2019-04-04T06:42:05.666Z,34.50
2019-04-04T06:44:38.622Z,34.60
2019-04-04T06:47:10.810Z,34.70
2019-04-04T06:49:45.554Z,34.70
2019-04-04T06:52:18.454Z,34.80
2019-04-04T06:54:50.507Z,34.90
2019-04-04T06:57:22.707Z,35.00
2019-04-04T06:59:55.236Z,35.10
2019-04-04T07:02:28.836Z,35.10
2019-04-04T07:05:01.522Z,35.20
2019-04-04T07:07:33.784Z,35.20
2019-04-04T07:10:07.572Z,35.30
2019-04-04T07:12:40.095Z,35.40
2019-04-04T07:15:16.007Z,35.50
2019-04-04T07:17:47.600Z,35.60
2019-04-04T07:20:38.610Z,35.70
2019-04-04T07:23:14.178Z,35.70
2019-04-04T07:25:45.100Z,35.70
2019-04-04T07:28:18.988Z,35.60
2019-04-04T07:30:54.470Z,35.50
2019-04-04T07:33:25.518Z,35.40
2019-04-04T07:35:58.674Z,35.30
2019-04-04T07:38:30.847Z,35.20
2019-04-04T07:41:02.792Z,35.10
2019-04-04T07:43:35.051Z,35.00
2019-04-04T07:46:16.368Z,34.90
2019-04-04T07:48:42.400Z,34.80
2019-04-04T07:51:14.530Z,34.70
2019-04-04T07:53:46.935Z,34.60
2019-04-04T07:56:19.724Z,34.50
2019-04-04T07:58:52.115Z,34.40
2019-04-04T08:01:24.586Z,34.30
2019-04-04T08:03:56.461Z,34.30
2019-04-04T08:06:47.558Z,34.40
2019-04-04T08:09:21.115Z,34.50
2019-04-04T08:11:53.926Z,34.60
2019-04-04T08:14:45.946Z,34.70
2019-04-04T08:17:19.078Z,34.80
2019-04-04T08:19:59.468Z,35.00
2019-04-04T08:22:25.677Z,35.20
2019-04-04T08:24:57.905Z,35.30
2019-04-04T08:27:30.399Z,35.40
2019-04-04T08:30:02.846Z,35.60
2019-04-04T08:32:37.078Z,35.70
2019-04-04T08:35:10.821Z,35.70
2019-04-04T08:37:42.695Z,35.80
2019-04-04T08:40:15.496Z,35.90
2019-04-04T08:42:51.552Z,35.90
2019-04-04T08:45:23.724Z,35.90
2019-04-04T08:47:57.278Z,35.90
2019-04-04T08:50:29.638Z,36.00
2019-04-04T08:53:10.842Z,36.00
2019-04-04T08:55:43.021Z,36.00
2019-04-04T08:58:15.055Z,36.00
2019-04-04T09:00:47.255Z,36.10
2019-04-04T09:03:19.661Z,36.10
2019-04-04T09:05:51.917Z,36.00
2019-04-04T09:08:23.707Z,36.00
2019-04-04T09:10:56.146Z,36.00
2019-04-04T09:13:28.155Z,36.00
2019-04-04T09:16:01.091Z,36.00
2019-04-04T09:18:32.950Z,36.00
2019-04-04T09:21:05.118Z,36.00
2019-04-04T09:23:37.633Z,36.00
2019-04-04T09:26:09.865Z,36.00
2019-04-04T09:28:42.335Z,36.00
2019-04-04T09:31:14.709Z,36.00
2019-04-04T09:33:47.223Z,36.00
2019-04-04T09:36:38.522Z,36.00
2019-04-04T09:39:11.085Z,36.00
2019-04-04T09:41:43.274Z,36.00
2019-04-04T09:44:15.708Z,35.90
2019-04-04T09:46:47.878Z,35.90
2019-04-04T09:49:21.035Z,35.80
2019-04-04T09:51:53.062Z,35.80
2019-04-04T09:54:25.360Z,35.80
2019-04-04T09:56:57.377Z,35.80
2019-04-04T09:59:29.539Z,35.70
2019-04-04T10:02:01.789Z,35.70
2019-04-04T10:04:34.127Z,35.70
2019-04-04T10:07:06.666Z,35.70
2019-04-04T10:09:38.806Z,35.60
2019-04-04T10:12:11.398Z,35.60
2019-04-04T10:14:43.717Z,35.50
2019-04-04T10:17:15.784Z,35.50
2019-04-04T10:19:48.412Z,35.50
2019-04-04T10:22:20.671Z,35.40
2019-04-04T10:24:52.641Z,35.40
2019-04-04T10:27:24.840Z,35.30
2019-04-04T10:29:56.851Z,35.20
2019-04-04T10:32:29.497Z,35.00
2019-04-04T10:35:02.904Z,34.90
2019-04-04T10:37:35.687Z,34.80
2019-04-04T10:40:10.072Z,34.60
2019-04-04T10:42:42.313Z,34.50
2019-04-04T10:45:15.278Z,34.40
2019-04-04T10:47:47.498Z,34.30
2019-04-04T10:50:20.405Z,34.20
2019-04-04T10:52:53.020Z,34.10
2019-04-04T10:55:25.191Z,34.10
2019-04-04T10:57:57.648Z,34.10
2019-04-04T11:00:30.137Z,34.00
2019-04-04T11:03:02.084Z,33.90
2019-04-04T11:05:35.446Z,33.90
2019-04-04T11:08:08.119Z,33.90
2019-04-04T11:10:40.460Z,33.80
2019-04-04T11:13:12.336Z,33.70
2019-04-04T11:15:45.589Z,33.60
2019-04-04T11:18:17.526Z,33.50
2019-04-04T11:20:49.935Z,33.40
2019-04-04T11:23:41.846Z,33.30
2019-04-04T11:26:14.927Z,33.20
2019-04-04T11:28:47.541Z,33.00
2019-04-04T11:31:20.224Z,32.90
2019-04-04T11:33:52.488Z,32.70
2019-04-04T11:36:24.527Z,32.70
2019-04-04T11:39:04.064Z,32.50
2019-04-04T11:41:38.425Z,32.40
2019-04-04T11:44:10.781Z,32.30
2019-04-04T11:46:42.852Z,32.20
2019-04-04T11:49:15.443Z,32.10
2019-04-04T11:51:48.393Z,32.10
2019-04-04T11:54:20.928Z,32.00
2019-04-04T11:56:52.953Z,31.90
2019-04-04T11:59:25.487Z,31.90
2019-04-04T12:01:58.503Z,31.80
2019-04-04T12:04:30.869Z,31.70
2019-04-04T12:07:03.000Z,31.70
2019-04-04T12:09:35.648Z,31.70
2019-04-04T12:12:11.673Z,31.60
2019-04-04T12:14:44.811Z,31.60
2019-04-04T12:17:17.047Z,31.60
2019-04-04T12:19:49.933Z,31.60
2019-04-04T12:22:22.303Z,31.60
2019-04-04T12:24:58.453Z,31.50
2019-04-04T12:27:30.743Z,31.50
2019-04-04T12:30:03.428Z,31.50
2019-04-04T12:32:36.231Z,31.40
2019-04-04T12:35:09.013Z,31.40
2019-04-04T12:38:00.248Z,31.40
2019-04-04T12:40:33.544Z,31.30
2019-04-04T12:43:06.531Z,31.30
2019-04-04T12:45:38.924Z,31.20
2019-04-04T12:48:11.797Z,31.20
2019-04-04T12:50:44.162Z,31.20
2019-04-04T12:53:17.000Z,31.10
2019-04-04T12:55:49.102Z,31.00
2019-04-04T12:58:21.223Z,31.00
2019-04-04T13:01:03.154Z,30.90
2019-04-04T13:03:35.381Z,30.80
2019-04-04T13:06:07.909Z,30.80
2019-04-04T13:08:39.841Z,30.70
2019-04-04T13:11:12.118Z,30.70
2019-04-04T13:13:44.568Z,30.60
2019-04-04T13:16:26.787Z,30.50
2019-04-04T13:18:59.381Z,30.50
2019-04-04T13:21:31.048Z,30.40
2019-04-04T13:24:03.243Z,30.40
2019-04-04T13:26:35.395Z,30.30
2019-04-04T13:29:08.700Z,30.30
2019-04-04T13:31:41.077Z,30.20
2019-04-04T13:34:14.494Z,30.20
2019-04-04T13:36:47.071Z,30.20
2019-04-04T13:39:19.905Z,30.10
2019-04-04T13:41:51.921Z,30.10
2019-04-04T13:44:24.126Z,30.10
2019-04-04T13:46:56.705Z,30.00
2019-04-04T13:49:28.596Z,30.00
2019-04-04T13:52:00.727Z,30.00
2019-04-04T13:54:34.327Z,30.00
2019-04-04T13:57:06.366Z,30.00
2019-04-04T13:59:38.474Z,30.00
2019-04-04T14:02:10.672Z,30.00
2019-04-04T14:04:42.520Z,30.00
2019-04-04T14:07:14.545Z,29.90
2019-04-04T14:09:46.895Z,29.90
2019-04-04T14:12:36.834Z,29.90
2019-04-04T14:15:11.834Z,29.90
2019-04-04T14:17:44.262Z,29.90
2019-04-04T14:20:25.802Z,29.80
2019-04-04T14:22:57.604Z,29.70
2019-04-04T14:25:30.054Z,29.70
2019-04-04T14:28:11.546Z,29.60
2019-04-04T14:30:43.487Z,29.50
2019-04-04T14:33:15.376Z,29.50
2019-04-04T14:35:47.721Z,29.40
2019-04-04T14:38:19.723Z,29.30
2019-04-04T14:41:12.006Z,29.20
2019-04-04T14:43:44.358Z,29.20
2019-04-04T14:46:16.514Z,29.10
2019-04-04T14:48:49.306Z,29.00
2019-04-04T14:51:24.344Z,29.10
2019-04-04T14:53:59.632Z,29.00
2019-04-04T14:56:32.463Z,29.00
2019-04-04T14:59:04.987Z,29.00
2019-04-04T15:01:39.513Z,29.00
2019-04-04T15:04:11.609Z,29.00
2019-04-04T15:06:43.615Z,29.00
2019-04-04T15:09:15.659Z,28.90
2019-04-04T15:11:47.642Z,28.90
2019-04-04T15:14:19.667Z,28.90
2019-04-04T15:16:51.508Z,28.90
2019-04-04T15:19:24.369Z,28.90
2019-04-04T15:21:57.441Z,28.90
2019-04-04T15:24:29.282Z,29.00
2019-04-04T15:27:01.570Z,28.90
2019-04-04T15:29:36.563Z,29.00
2019-04-04T15:32:08.938Z,29.00
2019-04-04T15:34:41.194Z,29.00
2019-04-04T15:37:13.086Z,29.00
2019-04-04T15:39:45.873Z,29.00
2019-04-04T15:42:18.170Z,29.00
2019-04-04T15:44:49.908Z,29.00
2019-04-04T15:47:22.235Z,28.90
2019-04-04T15:49:54.259Z,28.90
2019-04-04T15:52:27.228Z,28.90
2019-04-04T15:55:00.492Z,28.80
2019-04-04T15:57:33.498Z,28.80
2019-04-04T16:00:07.008Z,28.80
2019-04-04T16:02:39.366Z,28.80
2019-04-04T16:05:13.789Z,28.80
2019-04-04T16:07:45.944Z,28.80
2019-04-04T16:10:18.730Z,28.80
2019-04-04T16:12:51.990Z,28.70
2019-04-04T16:15:23.997Z,28.70
2019-04-04T16:17:56.482Z,28.70
2019-04-04T16:20:29.003Z,28.70
2019-04-04T16:23:01.133Z,28.70
2019-04-04T16:25:33.637Z,28.70
2019-04-04T16:28:05.888Z,28.70
2019-04-04T16:30:37.807Z,28.70
2019-04-04T16:33:12.761Z,28.70
2019-04-04T16:35:47.598Z,28.70
2019-04-04T16:38:22.703Z,28.60
2019-04-04T16:40:56.164Z,28.60
2019-04-04T16:43:28.796Z,28.60
2019-04-04T16:46:00.874Z,28.60
2019-04-04T16:48:32.979Z,28.50
2019-04-04T16:51:05.744Z,28.50
2019-04-04T16:53:37.969Z,28.50
2019-04-04T16:56:10.100Z,28.50
2019-04-04T16:58:49.733Z,28.40
2019-04-04T17:01:22.210Z,28.40
2019-04-04T17:04:01.414Z,28.40
2019-04-04T17:06:28.343Z,28.30
2019-04-04T17:09:04.625Z,28.40
2019-04-04T17:11:36.827Z,28.40
2019-04-04T17:14:09.088Z,28.30
2019-04-04T17:16:41.198Z,28.30
2019-04-04T17:19:13.589Z,28.30
2019-04-04T17:21:51.257Z,28.30
2019-04-04T17:24:23.850Z,28.30
2019-04-04T17:26:57.712Z,28.20
2019-04-04T17:29:30.336Z,28.20
2019-04-04T17:32:02.579Z,28.20
2019-04-04T17:34:35.277Z,28.10
2019-04-04T17:37:07.688Z,28.10
2019-04-04T17:39:39.930Z,28.10
2019-04-04T17:42:12.170Z,28.00
2019-04-04T17:44:45.470Z,28.00
2019-04-04T17:47:18.657Z,28.00
2019-04-04T17:49:51.468Z,28.00
2019-04-04T17:52:23.622Z,28.00
2019-04-04T17:54:55.884Z,28.00
2019-04-04T17:57:29.478Z,28.00
2019-04-04T18:00:02.060Z,28.00
2019-04-04T18:02:34.422Z,27.90
2019-04-04T18:05:08.834Z,27.90
2019-04-04T18:07:40.996Z,27.90
2019-04-04T18:10:13.931Z,27.80
2019-04-04T18:12:46.489Z,27.80
2019-04-04T18:15:19.996Z,27.70
2019-04-04T18:17:52.051Z,27.70
2019-04-04T18:20:25.356Z,27.70
2019-04-04T18:22:57.382Z,27.60
2019-04-04T18:25:29.404Z,27.60
2019-04-04T18:28:01.967Z,27.60
2019-04-04T18:30:34.012Z,27.60
2019-04-04T18:33:06.204Z,27.60
2019-04-04T18:35:39.228Z,27.60
2019-04-04T18:38:11.621Z,27.60
2019-04-04T18:40:43.560Z,27.60
2019-04-04T18:43:16.083Z,27.60
2019-04-04T18:45:48.715Z,27.50
2019-04-04T18:48:20.759Z,27.50
2019-04-04T18:50:53.757Z,27.50
2019-04-04T18:53:25.631Z,27.50
2019-04-04T18:55:57.752Z,27.40
2019-04-04T18:58:30.506Z,27.40
2019-04-04T19:01:03.345Z,27.40
2019-04-04T19:03:37.239Z,27.40
2019-04-04T19:06:09.517Z,27.40
2019-04-04T19:08:42.105Z,27.30
2019-04-04T19:11:15.086Z,27.30
2019-04-04T19:13:47.131Z,27.30
2019-04-04T19:16:19.041Z,27.30
2019-04-04T19:18:51.699Z,27.30
2019-04-04T19:21:23.996Z,27.30
2019-04-04T19:23:56.009Z,27.20
2019-04-04T19:26:28.627Z,27.30
2019-04-04T19:29:00.856Z,27.30
2019-04-04T19:31:33.110Z,27.20
2019-04-04T19:34:05.090Z,27.30
2019-04-04T19:36:36.946Z,27.20
2019-04-04T19:39:12.440Z,27.20
2019-04-04T19:41:44.515Z,27.20
2019-04-04T19:44:16.456Z,27.20
2019-04-04T19:46:48.638Z,27.10
2019-04-04T19:49:20.545Z,27.10
2019-04-04T19:51:52.618Z,27.10
2019-04-04T19:54:25.143Z,27.00
2019-04-04T19:56:57.409Z,27.00
2019-04-04T19:59:29.588Z,27.00
2019-04-04T20:02:02.502Z,27.00
2019-04-04T20:04:34.668Z,27.00
2019-04-04T20:07:06.709Z,27.00
2019-04-04T20:09:38.984Z,27.00
2019-04-04T20:12:11.570Z,27.00
2019-04-04T20:14:43.522Z,27.00
2019-04-04T20:17:16.141Z,27.00
2019-04-04T20:19:48.586Z,27.00
2019-04-04T20:22:20.535Z,27.00
2019-04-04T20:24:52.725Z,27.00
2019-04-04T20:27:24.647Z,27.00
2019-04-04T20:29:57.044Z,26.90
2019-04-04T20:32:29.888Z,26.90
2019-04-04T20:35:02.315Z,26.80
2019-04-04T20:37:34.442Z,26.80
2019-04-04T20:40:08.548Z,26.80
2019-04-04T20:42:40.831Z,26.80
2019-04-04T20:45:13.009Z,26.80
2019-04-04T20:47:45.506Z,26.70
2019-04-04T20:50:18.285Z,26.70
2019-04-04T20:52:50.917Z,26.60
2019-04-04T20:55:23.084Z,26.60
2019-04-04T20:57:56.065Z,26.60
2019-04-04T21:00:28.310Z,26.60
2019-04-04T21:03:00.327Z,26.50
2019-04-04T21:05:33.551Z,26.40
2019-04-04T21:08:05.805Z,26.40
2019-04-04T21:10:37.953Z,26.40
2019-04-04T21:13:10.341Z,26.40
2019-04-04T21:15:42.488Z,26.40
2019-04-04T21:18:14.571Z,26.40
2019-04-04T21:20:46.799Z,26.40
2019-04-04T21:23:18.947Z,26.40
2019-04-04T21:25:51.439Z,26.40
2019-04-04T21:28:23.699Z,26.40
2019-04-04T21:30:55.958Z,26.40
2019-04-04T21:33:31.366Z,26.40
2019-04-04T21:36:03.703Z,26.40
2019-04-04T21:38:36.163Z,26.30
2019-04-04T21:41:08.805Z,26.30
2019-04-04T21:43:40.944Z,26.30
2019-04-04T21:46:14.736Z,26.30
2019-04-04T21:48:46.977Z,26.20
2019-04-04T21:51:19.181Z,26.20
2019-04-04T21:53:51.181Z,26.20
2019-04-04T21:56:25.040Z,26.20
2019-04-04T21:58:57.519Z,26.10
2019-04-04T22:01:29.824Z,26.10
2019-04-04T22:04:01.957Z,26.10
2019-04-04T22:06:34.874Z,26.10
2019-04-04T22:09:10.178Z,26.00
2019-04-04T22:11:42.307Z,26.00
2019-04-04T22:14:21.666Z,26.00
2019-04-04T22:16:48.442Z,26.00
2019-04-04T22:19:20.694Z,25.90
2019-04-04T22:21:52.680Z,25.90
2019-04-04T22:24:25.869Z,25.90
2019-04-04T22:26:58.027Z,25.90
2019-04-04T22:29:30.669Z,25.90
2019-04-04T22:32:02.717Z,25.90
2019-04-04T22:34:35.221Z,25.90
2019-04-04T22:37:07.493Z,25.90
2019-04-04T22:39:39.332Z,25.80
2019-04-04T22:42:13.163Z,25.80
2019-04-04T22:44:44.988Z,25.80
2019-04-04T22:47:17.230Z,25.80
2019-04-04T22:49:49.518Z,25.80
2019-04-04T22:52:22.189Z,25.80
2019-04-04T22:54:54.346Z,25.70
2019-04-04T22:57:27.154Z,25.70
2019-04-04T22:59:59.071Z,25.80
2019-04-04T23:02:31.196Z,25.80
2019-04-04T23:05:03.340Z,25.80
2019-04-04T23:07:35.535Z,25.80
2019-04-04T23:10:10.436Z,25.80
2019-04-04T23:12:42.922Z,25.80
2019-04-04T23:15:15.577Z,25.80
2019-04-04T23:17:47.913Z,25.80
2019-04-04T23:20:20.561Z,25.90
2019-04-04T23:22:53.386Z,25.90
2019-04-04T23:25:26.031Z,25.90
2019-04-04T23:27:58.187Z,25.90
2019-04-04T23:30:30.321Z,25.90
2019-04-04T23:33:02.299Z,25.90
2019-04-04T23:35:34.519Z,25.90
2019-04-04T23:38:06.529Z,25.90
2019-04-04T23:40:39.653Z,25.90
2019-04-04T23:43:11.899Z,25.90
2019-04-04T23:45:44.245Z,25.90
2019-04-04T23:48:16.352Z,25.90
2019-04-04T23:50:48.696Z,25.90
2019-04-04T23:53:33.246Z,26.00
2019-04-04T23:56:05.687Z,26.00
2019-04-04T23:58:37.743Z,26.00
